Terminal Aerodrome Forecast
Issued by NWS Spokane, WA

Home | Current Version | Previous Version | Text Only | Print | Product List | Glossary On
Versions: 1 2 3 4 5 6 7 8 9 10 11 12 13 14 15 16 17 18 19 20 21 22 23 24 25 26 27 28 29 30 31 32 33 34 35 36 37 38 39 40 41 42 43 44 45 46 47
000
FTUS46 KOTX 261139
TAFGEG
TAF
KGEG 261139Z 2612/2712 05004KT 1/4SM -DZ FG OVC001
     FM261500 19006KT 1/2SM FG OVC001
     FM261900 21008KT 1SM BR OVC002
     FM262100 21012KT 4SM BR OVC004
     FM270000 19010KT P6SM SCT006 OVC012
     FM270600 18012KT P6SM SCT015 BKN050=

USA.gov is the U.S. government's official web portal to all federal, state and local government web resources and services.